Nearby METAR Reports

 

KMSN - Madison, Wisconsin, USA
Distance from station: WNW 8mi, 13km
Updated: Sun, Apr-11-2021 12:53pm CDT
Overcast
Overcast
 Wind from N
Wind: N 5 mph , 7 km/h
Temperature: 55°F , 13°C
Dew Point: 46°F , 8°C
Humidity: 72%
Barometer: 29.38 inHg , 994.9 hPa
Clouds: Overcast
Visibility: 10 miles , 16 km
Cloud details: Mostly cloudy 1600 ft
Mostly cloudy 2400 ft
Overcast 3300 ft
2021/04/11 17:53 KMSN 111753Z 01004KT 10SM BKN016 BKN024 OVC033 13/08 A2938 RMK AO2 SLP949 CIG 013V020 60000 T01280083 10128 20094 53009 $
KC29 - Middleton, Wisconsin, USA
Distance from station: W 17mi, 27km
Updated: Sun, Apr-11-2021 1:15pm CDT
Overcast
Overcast
 Wind from NNW
Wind: NNW 8 mph , 13 km/h
Temperature: 54°F , 12°C
Dew Point: 50°F , 10°C
Humidity: 88%
Barometer: 29.40 inHg , 995.6 hPa
Clouds: Overcast
Visibility: 10 miles , 16 km
Cloud details: Partly cloudy 1000 ft
Overcast 3100 ft
2021/04/11 18:15 KC29 111815Z AUTO 33007KT 10SM SCT010 OVC031 12/10 A2940 RMK AO1 T01230096
 
KRYV - Watertown, Wisconsin, USA
Distance from station: ENE 25mi, 40km
Updated: Sun, Apr-11-2021 1:15pm CDT
Mostly cloudy
Mostly cloudy
 Wind from SE
Wind: SE 3 mph , 6 km/h
Temperature: 55°F , 13°C
Dew Point: 45°F , 7°C
Humidity: 67%
Barometer: 29.39 inHg , 995.3 hPa
Clouds: Mostly cloudy
Visibility: 10 miles , 16 km
Cloud details: Mostly cloudy 3100 ft
2021/04/11 18:15 KRYV 111815Z AUTO 14003KT 10SM BKN031 13/07 A2939 RMK AO2 T01320066
KUNU - Juneau, Wisconsin, USA
Distance from station: NE 33mi, 54km
Updated: Sun, Apr-11-2021 1:35pm CDT
Overcast
Overcast
 Wind from calm
Wind: Calm
Temperature: 55°F , 13°C
Dew Point: 45°F , 7°C
Humidity: 67%
Barometer: 29.40 inHg , 995.6 hPa
Clouds: Overcast
Visibility: 10 miles , 16 km
Cloud details: Overcast 3500 ft
2021/04/11 18:35 KUNU 111835Z AUTO 00000KT 10SM OVC035 13/07 A2940 RMK AO2 T01280067
 
KJVL - Janesville/Rock, Wisconsin, USA
Distance from station: SSE 34mi, 55km
Updated: Sun, Apr-11-2021 12:45pm CDT
Mostly cloudy
Mostly cloudy
 Wind from ESE
Wind: ESE 5 mph , 7 km/h
Temperature: 52°F , 11°C
Dew Point: 52°F , 11°C
Humidity: 100%
Barometer: 29.39 inHg , 995.3 hPa
Clouds: Mostly cloudy
Visibility: 8 miles , 13 km
Cloud details: Mostly cloudy 1200 ft
2021/04/11 17:45 KJVL 111745Z 12004KT 8SM BKN012 11/11 A2939
KEFT - Monroe, Wisconsin, USA
Distance from station: SSW 39mi, 63km
Updated: Sun, Apr-11-2021 1:15pm CDT
Light drizzle, Overcast
Light drizzle, Overcast
 Wind from NNW
Wind: NNW 13 mph , 20 km/h, Gust: 17 mph , 28 km/h
Temperature: 52°F , 11°C
Dew Point: 48°F , 9°C
Humidity: 88%
Barometer: 29.39 inHg , 995.3 hPa
Summary: Light Drizzle
Clouds: Overcast
Visibility: 2 1/2 miles , 4 km
Cloud details: Mostly cloudy 600 ft
Overcast 1100 ft
2021/04/11 18:15 KEFT 111815Z AUTO 33011G15KT 2 1/2SM -DZ BKN006 OVC011 11/09 A2939 RMK AO2 T01090094
 
KDLL - Dells/Baraboo, Wisconsin, USA
Distance from station: NW 41mi, 65km
Updated: Sun, Apr-11-2021 1:35pm CDT
Overcast
Overcast
 Wind from NNW
Wind: NNW 3 mph , 6 km/h
Temperature: 50°F , 10°C
Dew Point: 48°F , 9°C
Humidity: 94%
Barometer: 29.41 inHg , 995.9 hPa
Clouds: Overcast
Visibility: 10 miles , 16 km
Cloud details: Mostly cloudy 700 ft
Mostly cloudy 1300 ft
Overcast 2200 ft
2021/04/11 18:35 KDLL 111835Z AUTO 33003KT 10SM BKN007 BKN013 OVC022 10/09 A2941 RMK AO2 T00960086
KUES - Waukesha Cnty, Wisconsin, USA
Distance from station: E 48mi, 77km
Updated: Sun, Apr-11-2021 12:45pm CDT
Overcast
Overcast
 Wind from ESE
Wind: ESE 6 mph , 9 km/h
Temperature: 52°F , 11°C
Dew Point: 39°F , 4°C
Humidity: 62%
Barometer: 29.39 inHg , 995.3 hPa
Clouds: Overcast
Visibility: 10 miles , 16 km
Cloud details: Overcast 3200 ft
2021/04/11 17:45 KUES 111745Z 12005KT 10SM OVC032 11/04 A2939
 
KC35 - Reedsburg, Wisconsin, USA
Distance from station: NW 50mi, 80km
Updated: Sun, Apr-11-2021 1:15pm CDT
Overcast
Overcast
 Wind from NNW
Wind: NNW 8 mph , 13 km/h
Temperature: 50°F , 10°C
Wind Chill: 47°F , 8°C
Dew Point: 50°F , 10°C
Humidity: 100%
Barometer: 29.41 inHg , 995.9 hPa
Clouds: Overcast
Visibility: 2 1/2 miles , 4 km
Cloud details: Overcast 800 ft
2021/04/11 18:15 KC35 111815Z AUTO 33007KT 2 1/2SM OVC008 10/10 A2941 RMK AO2 VIS 1 3/4V5 T00970097 PWINO
KLNR - Lone Rock, Wisconsin, USA
Distance from station: W 50mi, 81km
Updated: Sun, Apr-11-2021 1:29pm CDT
Light rain, Mist, Overcast
Light rain, Mist, Overcast
 Wind from WNW
Wind: WNW 9 mph , 15 km/h
Temperature: 52°F , 11°C
Dew Point: 48°F , 9°C
Humidity: 88%
Barometer: 29.43 inHg , 996.6 hPa
Summary: Light rain, Mist
Clouds: Overcast
Visibility: 3 miles , 5 km
Cloud details: Partly cloudy 1000 ft
Overcast 1600 ft
2021/04/11 18:29 KLNR 111829Z AUTO 29008KT 3SM -RA BR SCT010 OVC016 11/09 A2943 RMK AO2 RAB09 P0001 T01060089
 
KBUU - Burlington, Wisconsin, USA
Distance from station: ESE 54mi, 86km
Updated: Sun, Apr-11-2021 1:15pm CDT

 Wind from E
Wind: E 5 mph , 7 km/h
Temperature: 52°F , 11°C
Dew Point: 43°F , 6°C
Humidity: 72%
Barometer: 29.39 inHg , 995.3 hPa
Visibility: 10 miles , 16 km
2021/04/11 18:15 KBUU 111815Z AUTO 08004KT 10SM 11/06 A2939 RMK AO2 T01140062 PWINO
KMRJ - Mineral Point, Wisconsin, USA
Distance from station: WSW 54mi, 88km
Updated: Sun, Apr-11-2021 1:15pm CDT
Mist, Overcast
Mist, Overcast
 Wind from NW
Wind: NW 12 mph , 19 km/h, Gust: 20 mph , 31 km/h
Temperature: 50°F , 10°C
Wind Chill: 45°F , 7°C
Dew Point: 50°F , 10°C
Humidity: 100%
Barometer: 29.43 inHg , 996.6 hPa
Summary: Mist
Clouds: Overcast
Visibility: 3 miles , 5 km
Cloud details: Overcast 500 ft
2021/04/11 18:15 KMRJ 111815Z AUTO 31010G17KT 3SM BR OVC005 10/10 A2943 RMK AO2
 
KETB - West Bend, Wisconsin, USA
Distance from station: ENE 58mi, 93km
Updated: Sun, Apr-11-2021 1:15pm CDT
Mostly cloudy
Mostly cloudy
 Wind from S
Wind: S 9 mph , 15 km/h
Temperature: 54°F , 12°C
Dew Point: 41°F , 5°C
Humidity: 63%
Barometer: 29.39 inHg , 995.3 hPa
Clouds: Mostly cloudy
Visibility: 10 miles , 16 km
Cloud details: Mostly cloudy 3600 ft
2021/04/11 18:15 KETB 111815Z AUTO 18008KT 10SM BKN036 12/05 A2939 RMK AO2 P0001
KFLD - Fond Du Lac, Wisconsin, USA
Distance from station: NE 58mi, 94km
Updated: Sun, Apr-11-2021 1:04pm CDT
Overcast
Overcast
 Wind from N
Wind: N 3 mph , 6 km/h
Temperature: 55°F , 13°C
Dew Point: 46°F , 8°C
Humidity: 72%
Barometer: 29.38 inHg , 994.9 hPa
Clouds: Overcast
Visibility: 10 miles , 16 km
Cloud details: Few Clouds 2400 ft
Partly cloudy 3000 ft
Overcast 3600 ft
2021/04/11 18:04 KFLD 111804Z AUTO 35003KT 10SM FEW024 SCT030 OVC036 13/08 A2938 RMK AO2 T01330083
 
KMWC - Milwaukee/Lawren, Wisconsin, USA
Distance from station: E 59mi, 94km
Updated: Sun, Apr-11-2021 12:45pm CDT
Overcast
Overcast
 Wind from calm
Wind: Calm
Temperature: 54°F , 12°C
Dew Point: 37°F , 3°C
Humidity: 54%
Barometer: 29.39 inHg , 995.3 hPa
Clouds: Overcast
Visibility: 10 miles , 16 km
Cloud details: Overcast 3500 ft
2021/04/11 17:45 KMWC 111745Z 00000KT 10SM OVC035 12/03 A2939
KFEP - Freeport, Illinois, USA
Distance from station: SSW 62mi, 100km
Updated: Sun, Apr-11-2021 1:15pm CDT
Mist, Overcast
Mist, Overcast
 Wind from NW
Wind: NW 15 mph , 24 km/h, Gust: 20 mph , 31 km/h
Temperature: 52°F , 11°C
Dew Point: 50°F , 10°C
Humidity: 94%
Barometer: 29.42 inHg , 996.3 hPa
Summary: Mist
Clouds: Overcast
Visibility: 4 miles , 6 km
Cloud details: Overcast 1100 ft
2021/04/11 18:15 KFEP 111815Z AUTO 31013G17KT 4SM BR OVC011 11/10 A2942 RMK AO2 T01060101
 
KRFD - Rockford, Illinois, USA
Distance from station: S 62mi, 100km
Updated: Sun, Apr-11-2021 1:17pm CDT
Light drizzle, Overcast
Light drizzle, Overcast
 Wind from NNE
Wind: NNE 3 mph , 6 km/h
Temperature: 54°F , 12°C
Dew Point: 46°F , 8°C
Humidity: 77%
Barometer: 29.41 inHg , 995.9 hPa
Summary: Light Drizzle
Clouds: Overcast
Visibility: 5 miles , 8 km
Cloud details: Overcast 1300 ft
2021/04/11 18:17 KRFD 111817Z 02003KT 5SM -DZ OVC013 12/08 A2941 RMK AO2 DZB15 P0000 T01220078 $
KY50 - Wautoma, Wisconsin, USA
Distance from station: N 65mi, 104km
Updated: Sun, Apr-11-2021 1:32pm CDT
Overcast
Overcast
 Wind from ENE
Wind: ENE 3 mph , 6 km/h
Temperature: 54°F , 12°C
Dew Point: 48°F , 9°C
Humidity: 82%
Barometer: 29.41 inHg , 995.9 hPa
Clouds: Overcast
Visibility: 10 miles , 16 km
Cloud details: Partly cloudy 1400 ft
Mostly cloudy 2400 ft
Overcast 2800 ft
2021/04/11 18:32 KY50 111832Z AUTO 07003KT 10SM SCT014 BKN024 OVC028 12/09 A2941 RMK AO2 $
 
KMKE - Milwaukee, Wisconsin, USA
Distance from station: E 66mi, 107km
Updated: Sun, Apr-11-2021 12:52pm CDT
Mostly cloudy
Mostly cloudy
 Wind from varies
Wind: varies 3 mph , 6 km/h
Temperature: 55°F , 13°C
Dew Point: 43°F , 6°C
Humidity: 63%
Barometer: 29.39 inHg , 995.3 hPa
Clouds: Mostly cloudy
Visibility: 10 miles , 16 km
Cloud details: Few Clouds 2500 ft
Mostly cloudy 3700 ft
2021/04/11 17:52 KMKE 111752Z VRB03KT 10SM FEW025 BKN037 13/06 A2939 RMK AO2 SLP953 T01330061 10133 20061 51009 $
KOSH - Oshkosh, Wisconsin, USA
Distance from station: NNE 68mi, 110km
Updated: Sun, Apr-11-2021 12:53pm CDT
Mostly cloudy
Mostly cloudy
 Wind from varies
Wind: varies 5 mph , 7 km/h
Temperature: 54°F , 12°C
Dew Point: 48°F , 9°C
Humidity: 82%
Barometer: 29.38 inHg , 994.9 hPa
Clouds: Mostly cloudy
Visibility: 10 miles , 16 km
Cloud details: Few Clouds 1100 ft
Mostly cloudy 10000 ft
2021/04/11 17:53 KOSH 111753Z VRB04KT 10SM FEW011 BKN100 12/09 A2938 RMK AO2 SLP950 T01220089 10128 20078 51007